KBIS/BIS METAR and TAF weather

Enter ICAO airport designator
Station Type Date Time Source
KBIS METAR 2021/09/23 23:52 UTC NOAA

KBIS 232352Z 34012KT 10SM CLR 26/04 A2992 RMK AO2 SLP129 T02560044 10283 20233 53007


Station Type Date Time Source
KBIS Decoded METAR 2021/09/23 23:52 UTC NOAA

BISMARCK MUNICIPAL AIRPORT, ND, United States (KBIS) 46-47N 100-45W 503M
Sep 23, 2021 - 07:52 PM EDT / 2021.09.23 2352 UTC
Wind: from the NNW (340 degrees) at 14 MPH (12 KT):0
Visibility: 10 mile(s):0
Sky conditions: clear
Temperature: 78.1 F (25.6 C)
Dew Point: 39.9 F (4.4 C)
Relative Humidity: 25%
Pressure (altimeter): 29.92 in. Hg (1013 hPa)
Pressure tendency: 0.02 inches (0.7 hPa) higher than three hours ago
ob: KBIS 232352Z 34012KT 10SM CLR 26/04 A2992 RMK AO2 SLP129 T02560044 10283 20233 53007
cycle: 0

Station Type Date Time Source
KBIS TAF 2021/09/23 18:36 UTC NOAA

TAF KBIS 231733Z 2318/2418 34012G20KT P6SM SCT150 BKN250
FM240000 35007KT P6SM SCT200
FM240700 34007KT P6SM OVC070
FM241400 32012KT P6SM FEW250

Example: see airport list